createdAt,value
2022-09-28T00:00:06.458Z,2.35714
2022-09-28T00:01:06.487Z,2.35714
2022-09-28T00:02:06.738Z,2.42857
2022-09-28T00:03:06.625Z,2.5
2022-09-28T00:04:06.573Z,2.35714
2022-09-28T00:05:06.610Z,2.35714
2022-09-28T00:06:06.649Z,2.35714
2022-09-28T00:07:06.706Z,2.21429
2022-09-28T00:08:06.719Z,2.21429
2022-09-28T00:09:06.758Z,2.14286
2022-09-28T00:10:06.793Z,2.21429
2022-09-28T00:11:06.829Z,2.42857
2022-09-28T00:12:06.866Z,2.42857
2022-09-28T00:13:06.909Z,2.14286
2022-09-28T00:14:06.931Z,2.21429
2022-09-28T00:15:06.963Z,2.14286
2022-09-28T00:16:07.084Z,2.5
2022-09-28T00:17:07.032Z,2.42857
2022-09-28T00:18:07.065Z,2.71429
2022-09-28T00:19:07.102Z,2.5
2022-09-28T00:20:07.131Z,2.35714
2022-09-28T00:21:07.172Z,2.21429
2022-09-28T00:22:07.203Z,2.5
2022-09-28T00:23:07.239Z,2.42857
2022-09-28T00:24:07.268Z,2.42857
2022-09-28T00:25:07.297Z,2.42857
2022-09-28T00:26:07.330Z,2.35714
2022-09-28T00:27:07.360Z,2.42857
2022-09-28T00:28:07.408Z,2.64286
2022-09-28T00:29:07.441Z,2.64286
2022-09-28T00:30:07.480Z,2.64286
2022-09-28T00:31:07.570Z,2.5
2022-09-28T00:32:07.548Z,2.5
2022-09-28T00:33:07.604Z,2.5
2022-09-28T00:34:07.616Z,2.71429
2022-09-28T00:35:07.649Z,2.64286
2022-09-28T00:36:07.688Z,2.64286
2022-09-28T00:37:07.721Z,2.42857
2022-09-28T00:38:07.777Z,2.64286
2022-09-28T00:39:07.792Z,2.42857
2022-09-28T00:40:07.824Z,2.21429
2022-09-28T00:41:07.867Z,2.71429
2022-09-28T00:42:07.900Z,2.85714
2022-09-28T00:43:07.932Z,2.64286
2022-09-28T00:44:07.973Z,2.21429
2022-09-28T00:45:08.004Z,2.64286
2022-09-28T00:46:08.128Z,2.5
2022-09-28T00:47:08.069Z,2.71429
2022-09-28T00:48:08.091Z,2.85714
2022-09-28T00:49:08.118Z,2.64286
2022-09-28T00:50:08.149Z,2.64286
2022-09-28T00:51:08.186Z,2.64286
2022-09-28T00:52:08.231Z,2.5
2022-09-28T00:53:08.268Z,2.71429
2022-09-28T00:54:08.306Z,2.35714
2022-09-28T00:55:08.340Z,2.5
2022-09-28T00:56:08.372Z,2.42857
2022-09-28T00:57:08.408Z,2.5
2022-09-28T00:58:08.440Z,2.64286
2022-09-28T00:59:08.480Z,2.85714
2022-09-28T01:00:08.510Z,2.5
2022-09-28T01:01:08.637Z,2.71429
2022-09-28T01:02:08.641Z,2.92857
2022-09-28T01:03:08.615Z,2.64286
2022-09-28T01:04:08.646Z,3.14286
2022-09-28T01:05:08.682Z,3
2022-09-28T01:06:08.720Z,2.85714
2022-09-28T01:07:08.754Z,3
2022-09-28T01:08:08.781Z,2.92857
2022-09-28T01:09:08.818Z,3.35714
2022-09-28T01:10:08.865Z,2.92857
2022-09-28T01:11:08.892Z,2.71429
2022-09-28T01:12:08.929Z,3.14286
2022-09-28T01:13:08.959Z,3.14286
2022-09-28T01:14:08.996Z,2.85714
2022-09-28T01:15:09.027Z,2.92857
2022-09-28T01:16:09.105Z,3.35714
2022-09-28T01:17:09.093Z,2.71429
2022-09-28T01:18:09.123Z,2.92857
2022-09-28T01:19:09.164Z,2.92857
2022-09-28T01:20:09.198Z,3.14286
2022-09-28T01:21:09.271Z,2.85714
2022-09-28T01:22:09.272Z,3.35714
2022-09-28T01:23:09.309Z,2.92857
2022-09-28T01:24:09.350Z,3.21429
2022-09-28T01:25:09.368Z,3
2022-09-28T01:26:09.400Z,3
2022-09-28T01:27:09.439Z,3.14286
2022-09-28T01:28:09.476Z,2.85714
2022-09-28T01:29:09.645Z,3
2022-09-28T01:30:09.532Z,3.14286
2022-09-28T01:31:09.660Z,2.71429
2022-09-28T01:32:09.604Z,3.42857
2022-09-28T01:33:09.634Z,2.92857
2022-09-28T01:34:09.676Z,2.92857
2022-09-28T01:35:09.714Z,2.85714
2022-09-28T01:36:09.757Z,3
2022-09-28T01:37:09.789Z,2.92857
2022-09-28T01:38:09.826Z,2.71429
2022-09-28T01:39:09.917Z,2.92857
2022-09-28T01:40:09.890Z,2.64286
2022-09-28T01:41:09.923Z,2.71429
2022-09-28T01:42:09.962Z,2.85714
2022-09-28T01:43:09.989Z,2.92857
2022-09-28T01:44:10.030Z,2.92857
2022-09-28T01:45:10.066Z,3.21429
2022-09-28T01:46:10.202Z,2.71429
2022-09-28T01:47:10.147Z,2.71429
2022-09-28T01:48:10.173Z,2.71429
2022-09-28T01:49:10.274Z,2.42857
2022-09-28T01:50:10.240Z,2.85714
2022-09-28T01:51:10.275Z,2.5
2022-09-28T01:52:10.303Z,2.64286
2022-09-28T01:53:10.335Z,2.85714
2022-09-28T01:54:10.364Z,3
2022-09-28T01:55:10.400Z,2.71429
2022-09-28T01:56:10.437Z,2.5
2022-09-28T01:57:10.474Z,3
2022-09-28T01:58:10.512Z,2.71429
2022-09-28T01:59:10.567Z,2.71429
2022-09-28T02:00:10.587Z,2.64286
2022-09-28T02:01:10.677Z,2.85714
2022-09-28T02:02:10.686Z,2.5
2022-09-28T02:03:10.658Z,2.71429
2022-09-28T02:04:10.699Z,2.92857
2022-09-28T02:05:10.729Z,2.71429
2022-09-28T02:06:10.757Z,2.92857
2022-09-28T02:07:10.786Z,2.85714
2022-09-28T02:08:10.825Z,2.85714
2022-09-28T02:09:10.925Z,2.85714
2022-09-28T02:10:10.890Z,2.92857
2022-09-28T02:11:10.923Z,3
2022-09-28T02:12:10.962Z,3.14286
2022-09-28T02:13:11.005Z,2.92857
2022-09-28T02:14:11.033Z,2.92857
2022-09-28T02:15:11.064Z,2.71429
2022-09-28T02:16:11.127Z,2.85714
2022-09-28T02:17:11.133Z,3
2022-09-28T02:18:11.162Z,3.14286
2022-09-28T02:19:11.199Z,3.21429
2022-09-28T02:20:11.231Z,2.92857
2022-09-28T02:21:11.276Z,3
2022-09-28T02:22:11.308Z,3
2022-09-28T02:23:11.348Z,3
2022-09-28T02:24:11.375Z,3.21429
2022-09-28T02:25:11.411Z,2.85714
2022-09-28T02:26:11.447Z,3
2022-09-28T02:27:11.482Z,2.71429
2022-09-28T02:28:11.510Z,2.92857
2022-09-28T02:29:11.550Z,3
2022-09-28T02:30:11.586Z,3.42857
2022-09-28T02:31:11.745Z,3
2022-09-28T02:32:11.653Z,3.21429
2022-09-28T02:33:11.689Z,3
2022-09-28T02:34:11.709Z,3.21429
2022-09-28T02:35:11.739Z,2.71429
2022-09-28T02:36:11.765Z,3.35714
2022-09-28T02:37:11.802Z,3.42857
2022-09-28T02:38:11.839Z,3.14286
2022-09-28T02:39:11.888Z,3.14286
2022-09-28T02:40:11.908Z,3.21429
2022-09-28T02:41:11.944Z,3.14286
2022-09-28T02:42:11.973Z,3.35714
2022-09-28T02:43:12.010Z,3.35714
2022-09-28T02:44:12.055Z,3.35714
2022-09-28T02:45:12.086Z,2.85714
2022-09-28T02:46:12.136Z,3
2022-09-28T02:47:12.151Z,3.35714
2022-09-28T02:48:12.188Z,3.14286
2022-09-28T02:49:21.461Z,3.42857
2022-09-28T02:50:12.249Z,3.35714
2022-09-28T02:51:12.288Z,3.21429
2022-09-28T02:52:12.329Z,3.42857
2022-09-28T02:53:12.355Z,3.21429
2022-09-28T02:54:16.670Z,3.21429
2022-09-28T02:55:12.427Z,3.21429
2022-09-28T02:56:12.468Z,3.21429
2022-09-28T02:57:12.489Z,3.42857
2022-09-28T02:58:12.524Z,3.14286
2022-09-28T02:59:12.565Z,3.5
2022-09-28T03:00:12.594Z,3.5
2022-09-28T03:01:12.651Z,3.35714
2022-09-28T03:02:12.710Z,3.71429
2022-09-28T03:03:12.693Z,3.35714
2022-09-28T03:04:12.745Z,3.71429
2022-09-28T03:05:12.770Z,3.5
2022-09-28T03:06:12.802Z,4
2022-09-28T03:07:12.838Z,3.64286
2022-09-28T03:08:12.869Z,3.64286
2022-09-28T03:09:12.989Z,3.64286
2022-09-28T03:10:12.944Z,3.71429
2022-09-28T03:11:12.973Z,3.85714
2022-09-28T03:12:12.997Z,3.85714
2022-09-28T03:13:13.033Z,4.14286
2022-09-28T03:14:13.067Z,3.85714
2022-09-28T03:15:13.093Z,4.14286
2022-09-28T03:16:13.182Z,4.21429
2022-09-28T03:17:13.156Z,4
2022-09-28T03:18:13.187Z,4.21429
2022-09-28T03:19:13.263Z,3.92857
2022-09-28T03:20:13.253Z,4
2022-09-28T03:21:13.286Z,4.35714
2022-09-28T03:22:13.328Z,4.14286
2022-09-28T03:23:24.352Z,4.35714
2022-09-28T03:24:13.390Z,4.21429
2022-09-28T03:25:13.431Z,4.14286
2022-09-28T03:26:13.467Z,4.64286
2022-09-28T03:27:13.500Z,4
2022-09-28T03:28:13.539Z,4.21429
2022-09-28T03:29:13.680Z,4.71429
2022-09-28T03:30:13.623Z,4.71429
2022-09-28T03:31:13.717Z,4.71429
2022-09-28T03:32:13.693Z,4.71429
2022-09-28T03:33:13.731Z,4.42857
2022-09-28T03:34:13.765Z,4.71429
2022-09-28T03:35:13.801Z,4.71429
2022-09-28T03:36:13.839Z,4.85714
2022-09-28T03:37:13.872Z,4.85714
2022-09-28T03:38:13.906Z,4.71429
2022-09-28T03:39:13.990Z,4.64286
2022-09-28T03:40:13.962Z,4.71429
2022-09-28T03:41:13.993Z,4.35714
2022-09-28T03:42:14.026Z,4.92857
2022-09-28T03:43:14.064Z,4.5
2022-09-28T03:44:14.101Z,4.71429
2022-09-28T03:45:14.135Z,4.5
2022-09-28T03:46:14.259Z,5
2022-09-28T03:47:14.204Z,4.71429
2022-09-28T03:48:14.240Z,4.71429
2022-09-28T03:49:14.314Z,4.5
2022-09-28T03:50:14.296Z,4.35714
2022-09-28T03:51:14.335Z,4.71429
2022-09-28T03:52:14.370Z,5
2022-09-28T03:53:14.397Z,4.92857
2022-09-28T03:54:14.429Z,4.92857
2022-09-28T03:55:14.467Z,5.14286
2022-09-28T03:56:14.502Z,4.85714
2022-09-28T03:57:14.534Z,4.92857
2022-09-28T03:58:14.574Z,4.64286
2022-09-28T03:59:14.673Z,5.14286
2022-09-28T04:00:14.645Z,5.14286
2022-09-28T04:01:17.352Z,4.35714
2022-09-28T04:02:14.763Z,5
2022-09-28T04:03:14.751Z,4.64286
2022-09-28T04:04:14.783Z,5.21429
2022-09-28T04:05:14.844Z,5.14286
2022-09-28T04:06:14.856Z,4.92857
2022-09-28T04:07:14.896Z,4.64286
2022-09-28T04:08:14.918Z,5.35714
2022-09-28T04:09:15.121Z,4.71429
2022-09-28T04:10:15.007Z,5.35714
2022-09-28T04:11:15.016Z,4.85714
2022-09-28T04:12:15.047Z,5.35714
2022-09-28T04:13:15.084Z,5.42857
2022-09-28T04:14:15.113Z,5
2022-09-28T04:15:15.202Z,4.85714
2022-09-28T04:16:15.245Z,5
2022-09-28T04:17:15.220Z,4.92857
2022-09-28T04:18:15.264Z,5.71429
2022-09-28T04:19:15.340Z,5.42857
2022-09-28T04:20:15.345Z,5.5
2022-09-28T04:21:15.367Z,4.92857
2022-09-28T04:22:15.398Z,5.21429
2022-09-28T04:23:15.431Z,5.42857
2022-09-28T04:24:15.464Z,5.35714
2022-09-28T04:25:15.503Z,5.35714
2022-09-28T04:26:15.532Z,4.92857
2022-09-28T04:27:15.571Z,5.42857
2022-09-28T04:28:15.612Z,5.42857
2022-09-28T04:29:15.646Z,5.92857
2022-09-28T04:30:15.673Z,5.85714
2022-09-28T04:31:15.789Z,5.21429
2022-09-28T04:32:15.733Z,5.92857
2022-09-28T04:33:15.774Z,5.92857
2022-09-28T04:34:15.809Z,5.5
2022-09-28T04:35:15.835Z,5.92857
2022-09-28T04:36:15.869Z,5.35714
2022-09-28T04:37:15.911Z,5.64286
2022-09-28T04:38:23.487Z,5.71429
2022-09-28T04:39:15.987Z,5.5
2022-09-28T04:40:16.097Z,5.35714
2022-09-28T04:41:16.050Z,5.35714
2022-09-28T04:42:16.093Z,5.92857
2022-09-28T04:43:16.122Z,5.64286
2022-09-28T04:44:16.157Z,5.42857
2022-09-28T04:45:16.192Z,5.5
2022-09-28T04:46:16.293Z,5.42857
2022-09-28T04:47:16.261Z,5
2022-09-28T04:48:16.294Z,5.5
2022-09-28T04:49:16.329Z,5.21429
2022-09-28T04:50:16.354Z,5.64286
2022-09-28T04:51:16.392Z,5.35714
2022-09-28T04:52:18.466Z,5
2022-09-28T04:53:16.455Z,5.14286
2022-09-28T04:54:16.491Z,5.71429
2022-09-28T04:55:16.530Z,5.5
2022-09-28T04:56:16.565Z,5.21429
2022-09-28T04:57:16.600Z,5.85714
2022-09-28T04:58:16.639Z,5.64286
2022-09-28T04:59:16.769Z,5.5
2022-09-28T05:00:16.709Z,5.14286
2022-09-28T05:01:16.824Z,7.42857
2022-09-28T05:02:16.806Z,6.64286
2022-09-28T05:03:16.806Z,5.64286
2022-09-28T05:04:16.853Z,5.21429
2022-09-28T05:05:16.880Z,5.42857
2022-09-28T05:06:16.916Z,5.64286
2022-09-28T05:07:16.955Z,5.21429
2022-09-28T05:08:16.985Z,5.71429
2022-09-28T05:09:17.165Z,5.5
2022-09-28T05:10:17.044Z,4.92857
2022-09-28T05:11:17.076Z,5.35714
2022-09-28T05:12:17.105Z,5.64286
2022-09-28T05:13:17.136Z,6.14286
2022-09-28T05:14:17.181Z,5.5
2022-09-28T05:15:17.209Z,5.64286
2022-09-28T05:16:17.290Z,5.85714
2022-09-28T05:17:17.269Z,5.85714
2022-09-28T05:18:17.302Z,6
2022-09-28T05:19:17.465Z,5.85714
2022-09-28T05:20:17.371Z,6
2022-09-28T05:21:17.414Z,5.92857
2022-09-28T05:22:17.445Z,5.5
2022-09-28T05:23:17.482Z,5.64286
2022-09-28T05:24:17.506Z,5.85714
2022-09-28T05:25:17.537Z,5.64286
2022-09-28T05:26:17.567Z,5.5
2022-09-28T05:27:17.598Z,5.64286
2022-09-28T05:28:17.630Z,5.71429
2022-09-28T05:29:17.765Z,6
2022-09-28T05:30:17.701Z,5.92857
2022-09-28T05:31:17.800Z,5.35714
2022-09-28T05:32:17.779Z,5.71429
2022-09-28T05:33:17.809Z,5.5
2022-09-28T05:34:17.843Z,5.85714
2022-09-28T05:35:17.876Z,5.21429
2022-09-28T05:36:17.903Z,6.14286
2022-09-28T05:37:17.935Z,6.35714
2022-09-28T05:38:17.962Z,6
2022-09-28T05:39:18.176Z,5.64286
2022-09-28T05:40:18.114Z,6.35714
2022-09-28T05:41:18.070Z,6.21429
2022-09-28T05:42:18.101Z,5.71429
2022-09-28T05:43:18.125Z,6.35714
2022-09-28T05:44:18.222Z,6.14286
2022-09-28T05:45:18.193Z,5.92857
2022-09-28T05:46:18.284Z,5.64286
2022-09-28T05:47:18.260Z,5.92857
2022-09-28T05:48:18.291Z,5.64286
2022-09-28T05:49:18.319Z,5.71429
2022-09-28T05:50:18.357Z,6.35714
2022-09-28T05:51:18.382Z,5.64286
2022-09-28T05:52:18.419Z,5.64286
2022-09-28T05:53:18.454Z,6
2022-09-28T05:54:18.640Z,5.21429
2022-09-28T05:55:18.524Z,5.85714
2022-09-28T05:56:18.561Z,5.85714
2022-09-28T05:57:18.590Z,5.5
2022-09-28T05:58:18.625Z,5.71429
2022-09-28T05:59:18.656Z,6
2022-09-28T06:00:18.691Z,6
2022-09-28T06:01:18.769Z,5.71429
2022-09-28T06:02:18.809Z,6
2022-09-28T06:03:18.800Z,5.64286
2022-09-28T06:04:19.040Z,5
2022-09-28T06:05:18.866Z,5.35714
2022-09-28T06:06:18.925Z,5.42857
2022-09-28T06:07:18.928Z,5.85714
2022-09-28T06:08:18.962Z,6.14286
2022-09-28T06:09:21.670Z,5.92857
2022-09-28T06:10:19.013Z,5.71429
2022-09-28T06:11:19.045Z,5.85714
2022-09-28T06:12:19.076Z,5.92857
2022-09-28T06:13:19.099Z,5.35714
2022-09-28T06:14:19.132Z,6
2022-09-28T06:15:19.162Z,6.85714
2022-09-28T06:16:19.230Z,6.14286
2022-09-28T06:17:19.229Z,5.85714
2022-09-28T06:18:19.256Z,5.64286
2022-09-28T06:19:19.290Z,6.35714
2022-09-28T06:20:19.319Z,5.42857
2022-09-28T06:21:19.364Z,5.5
2022-09-28T06:22:19.392Z,5.71429
2022-09-28T06:23:19.432Z,5.71429
2022-09-28T06:24:19.457Z,6
2022-09-28T06:25:19.496Z,6.14286
2022-09-28T06:26:19.526Z,6.5
2022-09-28T06:27:19.559Z,5.85714
2022-09-28T06:28:19.593Z,6.21429
2022-09-28T06:29:20.003Z,5.5
2022-09-28T06:30:19.661Z,6.35714
2022-09-28T06:31:19.732Z,5.5
2022-09-28T06:32:19.717Z,5.85714
2022-09-28T06:33:19.760Z,5.92857
2022-09-28T06:34:19.789Z,5.71429
2022-09-28T06:35:19.816Z,5.85714
2022-09-28T06:36:19.853Z,5.92857
2022-09-28T06:37:19.886Z,5.64286
2022-09-28T06:38:19.918Z,5.42857
2022-09-28T06:39:19.951Z,5.92857
2022-09-28T06:40:20.014Z,5.42857
2022-09-28T06:41:20.018Z,6
2022-09-28T06:42:20.041Z,5.71429
2022-09-28T06:43:20.081Z,6.42857
2022-09-28T06:44:20.116Z,5.71429
2022-09-28T06:45:20.149Z,5.64286
2022-09-28T06:46:20.221Z,6.21429
2022-09-28T06:47:20.207Z,6.14286
2022-09-28T06:48:20.248Z,6.14286
2022-09-28T06:49:20.286Z,5.64286
2022-09-28T06:50:20.321Z,5.85714
2022-09-28T06:51:20.356Z,5.85714
2022-09-28T06:52:20.390Z,9.64286
2022-09-28T06:53:20.424Z,16.1429
2022-09-28T06:54:20.450Z,10.2143
2022-09-28T06:55:20.493Z,7.5
2022-09-28T06:56:20.525Z,6.64286
2022-09-28T06:57:20.553Z,6
2022-09-28T06:58:20.594Z,5.92857
2022-09-28T06:59:20.626Z,5.71429
2022-09-28T07:00:20.665Z,5.71429
2022-09-28T07:01:20.820Z,6.21429
2022-09-28T07:02:20.768Z,6.14286
2022-09-28T07:03:20.774Z,5.42857
2022-09-28T07:04:20.812Z,5.42857
2022-09-28T07:05:20.838Z,6
2022-09-28T07:06:20.876Z,6.42857
2022-09-28T07:07:20.915Z,6
2022-09-28T07:08:20.945Z,6.42857
2022-09-28T07:09:33.463Z,6
2022-09-28T07:10:21.012Z,5.92857
2022-09-28T07:11:21.046Z,5.64286
2022-09-28T07:12:21.077Z,5.85714
2022-09-28T07:13:47.398Z,6.14286
2022-09-28T07:14:42.794Z,6.35714
2022-09-28T07:15:21.177Z,6.21429
2022-09-28T07:16:25.885Z,6.71429
2022-09-28T07:17:21.257Z,6.5
2022-09-28T07:18:21.300Z,6.14286
2022-09-28T07:19:21.311Z,6.71429
2022-09-28T07:20:21.353Z,6.14286
2022-09-28T07:21:29.170Z,6.35714
2022-09-28T07:22:33.868Z,6.64286
2022-09-28T07:23:21.463Z,6.35714
2022-09-28T07:24:21.506Z,7.5
2022-09-28T07:25:21.530Z,6.64286
2022-09-28T07:26:24.038Z,7
2022-09-28T07:27:24.447Z,5.92857
2022-09-28T07:28:21.631Z,6.42857
2022-09-28T07:29:21.660Z,6.14286
2022-09-28T07:30:21.724Z,6.35714
2022-09-28T07:31:21.787Z,7.14286
2022-09-28T07:32:21.790Z,6.71429
2022-09-28T07:33:21.792Z,6.64286
2022-09-28T07:34:21.829Z,6.71429
2022-09-28T07:35:21.868Z,6.64286
2022-09-28T07:36:21.899Z,6.42857
2022-09-28T07:37:21.936Z,6.42857
2022-09-28T07:38:21.970Z,7
2022-09-28T07:39:22.010Z,6.35714
2022-09-28T07:40:22.091Z,6.64286
2022-09-28T07:41:22.076Z,6.64286
2022-09-28T07:42:22.103Z,6.5
2022-09-28T07:43:22.128Z,7.85714
2022-09-28T07:44:22.160Z,7
2022-09-28T07:45:22.192Z,7.21429
2022-09-28T07:46:22.356Z,6.92857
2022-09-28T07:47:22.261Z,7.14286
2022-09-28T07:48:22.302Z,6.71429
2022-09-28T07:49:22.337Z,6.64286
2022-09-28T07:50:22.373Z,6.85714
2022-09-28T07:51:22.393Z,6.92857
2022-09-28T07:52:22.434Z,6.85714
2022-09-28T07:53:22.461Z,6.85714
2022-09-28T07:54:22.490Z,7
2022-09-28T07:55:22.522Z,6.64286
2022-09-28T07:56:22.560Z,6.92857
2022-09-28T07:57:22.595Z,6.92857
2022-09-28T07:58:22.625Z,6.71429
2022-09-28T07:59:22.665Z,7.35714
2022-09-28T08:00:22.703Z,8.21429
2022-09-28T08:01:22.833Z,7.21429
2022-09-28T08:02:22.822Z,7.21429
2022-09-28T08:03:22.812Z,7.21429
2022-09-28T08:04:22.841Z,6.92857
2022-09-28T08:05:22.872Z,6.64286
2022-09-28T08:06:22.908Z,6.85714
2022-09-28T08:07:24.098Z,6.71429
2022-09-28T08:08:22.986Z,6.85714
2022-09-28T08:09:23.013Z,6.64286
2022-09-28T08:10:23.154Z,7
2022-09-28T08:11:23.076Z,6.92857
2022-09-28T08:12:23.110Z,6.42857
2022-09-28T08:13:26.698Z,6.64286
2022-09-28T08:14:23.177Z,6.5
2022-09-28T08:15:23.218Z,6.71429
2022-09-28T08:16:23.388Z,6.42857
2022-09-28T08:17:23.287Z,6.85714
2022-09-28T08:18:23.335Z,6.21429
2022-09-28T08:19:23.350Z,6.14286
2022-09-28T08:20:23.448Z,6.64286
2022-09-28T08:21:23.413Z,6.85714
2022-09-28T08:22:23.443Z,6.35714
2022-09-28T08:23:23.482Z,6.42857
2022-09-28T08:24:23.511Z,6.42857
2022-09-28T08:25:23.544Z,6.14286
2022-09-28T08:26:23.579Z,6.42857
2022-09-28T08:27:23.615Z,6.85714
2022-09-28T08:28:23.650Z,6.85714
2022-09-28T08:29:23.676Z,7.14286
2022-09-28T08:30:23.856Z,6.92857
2022-09-28T08:31:23.773Z,6.35714
2022-09-28T08:32:23.768Z,6.14286
2022-09-28T08:33:23.801Z,6
2022-09-28T08:34:23.838Z,6.35714
2022-09-28T08:35:23.862Z,6
2022-09-28T08:36:23.919Z,6.35714
2022-09-28T08:37:23.955Z,6.64286
2022-09-28T08:38:23.989Z,6.5
2022-09-28T08:39:24.008Z,6.71429
2022-09-28T08:40:24.124Z,6.42857
2022-09-28T08:41:24.080Z,6
2022-09-28T08:42:24.115Z,6.64286
2022-09-28T08:43:24.148Z,6.14286
2022-09-28T08:44:24.470Z,6.21429
2022-09-28T08:45:24.214Z,6.21429
2022-09-28T08:46:26.476Z,6.14286
2022-09-28T08:47:24.285Z,7.14286
2022-09-28T08:48:24.315Z,5.5
2022-09-28T08:49:26.006Z,6.42857
2022-09-28T08:50:24.379Z,6.14286
2022-09-28T08:51:24.411Z,6.14286
2022-09-28T08:52:24.443Z,6.42857
2022-09-28T08:53:24.474Z,6.71429
2022-09-28T08:54:24.507Z,6.71429
2022-09-28T08:55:24.555Z,6.5
2022-09-28T08:56:24.573Z,6.71429
2022-09-28T08:57:24.608Z,6.42857
2022-09-28T08:58:24.640Z,6.64286
2022-09-28T08:59:24.676Z,6.85714
2022-09-28T09:00:24.710Z,7.14286
2022-09-28T09:01:24.764Z,6.35714
2022-09-28T09:02:24.823Z,6.64286
2022-09-28T09:03:24.802Z,6.42857
2022-09-28T09:04:24.835Z,6.85714
2022-09-28T09:05:24.865Z,6.71429
2022-09-28T09:06:24.892Z,6.5
2022-09-28T09:07:24.934Z,6.5
2022-09-28T09:08:24.964Z,6.21429
2022-09-28T09:09:24.989Z,6.35714
2022-09-28T09:10:25.019Z,6.42857
2022-09-28T09:11:25.055Z,6.71429
2022-09-28T09:12:25.098Z,6
2022-09-28T09:13:25.128Z,6.35714
2022-09-28T09:14:25.160Z,5.71429
2022-09-28T09:15:25.189Z,6.42857
2022-09-28T09:16:25.281Z,6.21429
2022-09-28T09:17:25.255Z,6.14286
2022-09-28T09:18:25.284Z,6.14286
2022-09-28T09:19:25.317Z,5.71429
2022-09-28T09:20:25.346Z,5.71429
2022-09-28T09:21:25.380Z,5.42857
2022-09-28T09:22:25.406Z,5.85714
2022-09-28T09:23:25.440Z,4.92857
2022-09-28T09:24:25.476Z,5.42857
2022-09-28T09:25:25.496Z,5.21429
2022-09-28T09:26:26.279Z,5
2022-09-28T09:27:25.558Z,5.14286
2022-09-28T09:28:25.590Z,5.21429
2022-09-28T09:29:25.618Z,5
2022-09-28T09:30:28.719Z,4.92857
2022-09-28T09:31:25.707Z,5.42857
2022-09-28T09:32:25.711Z,4.64286
2022-09-28T09:33:25.736Z,5
2022-09-28T09:34:25.770Z,4.71429
2022-09-28T09:35:28.832Z,5.64286
2022-09-28T09:36:25.834Z,4.35714
2022-09-28T09:37:25.867Z,4.21429
2022-09-28T09:38:25.899Z,4.14286
2022-09-28T09:39:25.931Z,4.35714
2022-09-28T09:40:25.982Z,4.14286
2022-09-28T09:41:25.986Z,3.85714
2022-09-28T09:42:26.027Z,4.14286
2022-09-28T09:43:29.373Z,4.14286
2022-09-28T09:44:26.085Z,4.35714
2022-09-28T09:45:26.118Z,3.64286
2022-09-28T09:46:26.211Z,3.21429
2022-09-28T09:47:26.172Z,3.64286
2022-09-28T09:48:26.196Z,3.5
2022-09-28T09:49:26.224Z,3.21429
2022-09-28T09:50:26.265Z,3.35714
2022-09-28T09:51:26.299Z,3.35714
2022-09-28T09:52:26.386Z,3.21429
2022-09-28T09:53:26.351Z,3.35714
2022-09-28T09:54:26.384Z,3.64286
2022-09-28T09:55:30.162Z,3.35714
2022-09-28T09:56:26.443Z,3.35714
2022-09-28T09:57:26.477Z,3.21429
2022-09-28T09:58:26.511Z,3.35714
2022-09-28T09:59:26.540Z,3.35714
2022-09-28T10:00:26.579Z,3.35714
2022-09-28T10:01:26.665Z,3.21429
2022-09-28T10:02:26.699Z,3.35714
2022-09-28T10:03:26.663Z,3.35714
2022-09-28T10:04:26.701Z,3
2022-09-28T10:05:26.737Z,3
2022-09-28T10:06:26.772Z,3
2022-09-28T10:07:26.804Z,3
2022-09-28T10:08:26.837Z,3
2022-09-28T10:09:26.862Z,3.14286
2022-09-28T10:10:26.894Z,3
2022-09-28T10:11:26.958Z,3.21429
2022-09-28T10:12:26.954Z,3
2022-09-28T10:13:26.996Z,2.85714
2022-09-28T10:14:27.022Z,2.64286
2022-09-28T10:15:27.070Z,2.85714
2022-09-28T10:16:27.168Z,2.5
2022-09-28T10:17:27.120Z,2.5
2022-09-28T10:18:27.154Z,2.5
2022-09-28T10:19:27.188Z,2.5
2022-09-28T10:20:27.213Z,2.35714
2022-09-28T10:21:27.241Z,2.5
2022-09-28T10:22:27.280Z,2.92857
2022-09-28T10:23:27.311Z,2.42857
2022-09-28T10:24:27.348Z,2.71429
2022-09-28T10:25:27.376Z,2.64286
2022-09-28T10:26:27.420Z,2.35714
2022-09-28T10:27:27.455Z,2.35714
2022-09-28T10:28:27.484Z,2.5
2022-09-28T10:29:27.519Z,2.21429
2022-09-28T10:30:27.742Z,2.35714
2022-09-28T10:31:27.581Z,2.21429
2022-09-28T10:32:27.613Z,2.35714
2022-09-28T10:33:27.648Z,1.92857
2022-09-28T10:34:27.679Z,2.35714
2022-09-28T10:35:27.716Z,2.14286
2022-09-28T10:36:27.742Z,1.92857
2022-09-28T10:37:27.773Z,2.42857
2022-09-28T10:38:27.808Z,2
2022-09-28T10:39:27.840Z,2
2022-09-28T10:40:27.885Z,2.21429
2022-09-28T10:41:27.897Z,2
2022-09-28T10:42:27.932Z,2.21429
2022-09-28T10:43:27.970Z,1.85714
2022-09-28T10:44:28.003Z,1.92857
2022-09-28T10:45:28.034Z,2
2022-09-28T10:46:28.135Z,1.92857
2022-09-28T10:47:28.103Z,1.71429
2022-09-28T10:48:28.138Z,1.92857
2022-09-28T10:49:28.169Z,1.92857
2022-09-28T10:50:28.219Z,1.85714
2022-09-28T10:51:28.240Z,2
2022-09-28T10:52:28.271Z,1.85714
2022-09-28T10:53:28.310Z,1.92857
2022-09-28T10:54:28.416Z,1.92857
2022-09-28T10:55:28.372Z,2.14286
2022-09-28T10:56:28.399Z,2.14286
2022-09-28T10:57:28.437Z,2.21429
2022-09-28T10:58:28.471Z,1.92857
2022-09-28T10:59:28.498Z,2.14286
2022-09-28T11:00:28.526Z,2.21429
2022-09-28T11:01:28.616Z,1.92857
2022-09-28T11:02:31.281Z,2.21429
2022-09-28T11:03:28.624Z,1.92857
2022-09-28T11:04:28.665Z,2
2022-09-28T11:05:28.682Z,2.14286
2022-09-28T11:06:28.715Z,1.92857
2022-09-28T11:07:28.746Z,2
2022-09-28T11:08:28.780Z,1.92857
2022-09-28T11:09:30.854Z,1.92857
2022-09-28T11:10:28.849Z,2.21429
2022-09-28T11:11:28.877Z,1.85714
2022-09-28T11:12:28.913Z,2
2022-09-28T11:13:29.962Z,2.21429
2022-09-28T11:14:28.980Z,2.21429
2022-09-28T11:15:29.017Z,1.85714
2022-09-28T11:16:29.187Z,2
2022-09-28T11:17:29.078Z,1.92857
2022-09-28T11:18:29.115Z,1.85714
2022-09-28T11:19:29.161Z,1.92857
2022-09-28T11:20:29.185Z,1.92857
2022-09-28T11:21:29.211Z,2
2022-09-28T11:22:29.246Z,2.14286
2022-09-28T11:23:29.293Z,1.71429
2022-09-28T11:24:29.319Z,1.85714
2022-09-28T11:25:29.352Z,2.21429
2022-09-28T11:26:29.388Z,2
2022-09-28T11:27:29.415Z,2.14286
2022-09-28T11:28:29.454Z,2.35714
2022-09-28T11:29:29.518Z,2
2022-09-28T11:30:29.568Z,2.14286
2022-09-28T11:31:29.559Z,2.21429
2022-09-28T11:32:29.595Z,2
2022-09-28T11:33:29.626Z,2.42857
2022-09-28T11:34:47.846Z,2.14286
2022-09-28T11:35:29.695Z,2.14286
2022-09-28T11:36:29.731Z,2.21429
2022-09-28T11:37:29.763Z,2.35714
2022-09-28T11:38:29.800Z,2.21429
2022-09-28T11:39:29.829Z,1.85714
2022-09-28T11:40:29.908Z,2.14286
2022-09-28T11:41:29.887Z,2.14286
2022-09-28T11:42:29.921Z,1.92857
2022-09-28T11:43:29.948Z,2.14286
2022-09-28T11:44:32.701Z,2
2022-09-28T11:45:30.020Z,1.92857
2022-09-28T11:46:30.102Z,2
2022-09-28T11:47:30.084Z,2.35714
2022-09-28T11:48:30.124Z,2
2022-09-28T11:49:30.203Z,2
2022-09-28T11:50:30.181Z,2
2022-09-28T11:51:30.221Z,2
2022-09-28T11:52:30.250Z,2.14286
2022-09-28T11:53:30.288Z,2
2022-09-28T11:54:30.333Z,2.14286
2022-09-28T11:55:30.353Z,2.14286
2022-09-28T11:56:30.388Z,1.92857
2022-09-28T11:57:30.421Z,1.92857
2022-09-28T11:58:30.459Z,1.92857
2022-09-28T11:59:30.496Z,1.92857
2022-09-28T12:00:30.534Z,2.14286
2022-09-28T12:01:30.558Z,1.71429
2022-09-28T12:02:30.745Z,2
2022-09-28T12:03:30.803Z,1.92857
2022-09-28T12:04:30.662Z,2
2022-09-28T12:05:30.700Z,1.85714
2022-09-28T12:06:30.733Z,2.14286
2022-09-28T12:07:30.764Z,2
2022-09-28T12:08:30.796Z,1.92857
2022-09-28T12:09:30.827Z,1.71429
2022-09-28T12:10:30.857Z,2
2022-09-28T12:11:30.885Z,1.85714
2022-09-28T12:12:30.915Z,1.64286
2022-09-28T12:13:30.956Z,1.92857
2022-09-28T12:14:30.993Z,1.85714
2022-09-28T12:15:42.175Z,1.85714
2022-09-28T12:17:03.686Z,1.5
2022-09-28T12:17:31.175Z,1.64286
2022-09-28T12:18:31.115Z,1.71429
2022-09-28T12:19:31.153Z,1.71429
2022-09-28T12:20:31.179Z,1.64286
2022-09-28T12:21:31.209Z,1.92857
2022-09-28T12:22:31.283Z,1.85714
2022-09-28T12:23:31.290Z,1.92857
2022-09-28T12:24:31.307Z,1.71429
2022-09-28T12:25:31.334Z,1.85714
2022-09-28T12:26:34.642Z,1.64286
2022-09-28T12:27:31.402Z,1.71429
2022-09-28T12:28:31.441Z,1.92857